createdAt,value
2022-09-05T00:00:04.872Z,100430.09
2022-09-05T00:03:09.157Z,100439.13
2022-09-05T00:06:03.576Z,100430.09
2022-09-05T00:09:03.195Z,100438.53
2022-09-05T00:11:51.367Z,100432.34
2022-09-05T00:15:16.647Z,100434.03
2022-09-05T00:19:01.505Z,100425.88
2022-09-05T00:24:28.685Z,100413.34
2022-09-05T00:25:00.903Z,100422.59
2022-09-05T00:27:34.261Z,100420.94
2022-09-05T00:31:06.871Z,100410.22
2022-09-05T00:33:29.211Z,100419.50
2022-09-05T00:36:13.089Z,100453.44
2022-09-05T00:38:43.452Z,100691.47
2022-09-05T00:41:13.976Z,100691.34
2022-09-05T00:43:45.733Z,100641.78
2022-09-05T00:46:32.043Z,100613.75
2022-09-05T00:49:26.857Z,100619.72
2022-09-05T00:52:18.291Z,100603.34
2022-09-05T00:55:14.068Z,100609.34
2022-09-05T00:58:14.300Z,100610.69
2022-09-05T01:01:01.591Z,100614.59
2022-09-05T01:04:07.996Z,100594.56
2022-09-05T01:07:04.424Z,100567.41
2022-09-05T01:09:50.966Z,100571.28
2022-09-05T01:12:39.911Z,100563.41
2022-09-05T01:15:32.416Z,100539.47
2022-09-05T01:18:37.134Z,100549.31
2022-09-05T01:21:27.482Z,100539.59
2022-09-05T01:24:28.283Z,100524.91
2022-09-05T01:27:54.701Z,100531.09
2022-09-05T01:30:48.234Z,100507.19
2022-09-05T01:33:46.315Z,100501.84
2022-09-05T01:36:55.068Z,100503.81
2022-09-05T01:40:12.411Z,100497.84
2022-09-05T01:43:02.018Z,100504.19
2022-09-05T01:45:55.230Z,100508.19
2022-09-05T01:48:47.588Z,100490.59
2022-09-05T01:51:50.417Z,100492.19
2022-09-05T01:54:53.113Z,100479.66
2022-09-05T01:57:26.407Z,100471.53
2022-09-05T02:00:03.374Z,100476.88
2022-09-05T02:03:02.850Z,100468.41
2022-09-05T02:06:07.121Z,100453.22
2022-09-05T02:09:17.960Z,100430.16
2022-09-05T02:12:09.759Z,100429.47
2022-09-05T02:14:54.219Z,100441.38
2022-09-05T02:17:50.582Z,100433.59
2022-09-05T02:20:36.555Z,100423.31
2022-09-05T02:23:44.125Z,100420.91
2022-09-05T02:26:18.065Z,100408.44
2022-09-05T02:29:31.097Z,100408.06
2022-09-05T02:32:19.019Z,100417.03
2022-09-05T02:35:24.881Z,100422.75
2022-09-05T02:40:26.211Z,100427.97
2022-09-05T02:45:07.354Z,100424.69
2022-09-05T02:45:19.112Z,100419.38
2022-09-05T02:47:46.344Z,100420.31
2022-09-05T02:55:54.759Z,100428.34
2022-09-05T02:57:34.736Z,100436.25
2022-09-05T02:57:38.559Z,100465.38
2022-09-05T02:59:50.435Z,100475.44
2022-09-05T03:02:51.585Z,100476.06
2022-09-05T03:05:24.496Z,100467.22
2022-09-05T03:08:06.182Z,100475.09
2022-09-05T03:10:55.436Z,100472.31
2022-09-05T03:13:57.404Z,100473.88
2022-09-05T03:16:57.944Z,100468.41
2022-09-05T03:20:01.995Z,100492.53
2022-09-05T03:22:55.388Z,100498.88
2022-09-05T03:25:26.531Z,100504.34
2022-09-05T03:28:21.398Z,100507.38
2022-09-05T03:31:22.393Z,100511.25
2022-09-05T03:34:45.634Z,100514.03
2022-09-05T03:37:46.652Z,100516.81
2022-09-05T03:40:37.508Z,100519.50
2022-09-05T03:43:31.301Z,100522.41
2022-09-05T03:46:10.521Z,100512.44
2022-09-05T03:49:38.892Z,100525.19
2022-09-05T03:57:13.651Z,100537.69
2022-09-05T03:57:19.160Z,100532.25
2022-09-05T03:58:59.090Z,100535.03
2022-09-05T04:02:54.213Z,100540.59
2022-09-05T04:08:08.466Z,100535.50
2022-09-05T04:08:34.310Z,100539.50
2022-09-05T04:11:39.139Z,100530.13
2022-09-05T04:14:28.609Z,100530.00
2022-09-05T04:17:26.573Z,100534.63
2022-09-05T04:20:04.745Z,100534.72
2022-09-05T04:25:41.437Z,100549.31
2022-09-05T04:28:28.921Z,100544.94
2022-09-05T04:31:17.772Z,100541.53
2022-09-05T04:34:28.831Z,100548.06
2022-09-05T04:37:49.479Z,100552.91
2022-09-05T04:40:38.574Z,100552.41
2022-09-05T04:43:44.697Z,100555.31
2022-09-05T04:46:48.593Z,100555.66
2022-09-05T04:49:33.646Z,100557.59
2022-09-05T04:52:31.734Z,100556.00
2022-09-05T04:55:21.711Z,100558.06
2022-09-05T04:58:07.303Z,100557.22
2022-09-05T05:06:03.474Z,100556.50
2022-09-05T05:06:08.549Z,100551.19
2022-09-05T05:06:45.639Z,100556.50
2022-09-05T05:09:45.876Z,100562.06
2022-09-05T05:18:03.479Z,100566.75
2022-09-05T05:18:07.633Z,100570.41
2022-09-05T05:18:42.841Z,100573.31
2022-09-05T05:21:25.994Z,100570.94
2022-09-05T05:24:00.898Z,100566.97
2022-09-05T05:26:56.803Z,100558.25
2022-09-05T05:29:47.114Z,100565.13
2022-09-05T05:32:45.465Z,100569.75
2022-09-05T05:35:39.817Z,100569.63
2022-09-05T05:38:28.457Z,100579.44
2022-09-05T05:41:33.348Z,100577.13
2022-09-05T05:44:02.306Z,100582.22
2022-09-05T05:46:43.586Z,100587.56
2022-09-05T05:49:49.705Z,100598.44
2022-09-05T05:52:23.853Z,100601.00
2022-09-05T05:55:34.047Z,100603.88
2022-09-05T05:58:32.668Z,100619.00
2022-09-05T06:01:37.761Z,100613.56
2022-09-05T06:04:42.198Z,100625.53
2022-09-05T06:11:51.592Z,100625.00
2022-09-05T06:14:58.564Z,100626.94
2022-09-05T06:15:04.723Z,100629.59
2022-09-05T06:17:30.975Z,100620.03
2022-09-05T06:22:08.368Z,100622.34
2022-09-05T06:23:50.239Z,100621.28
2022-09-05T06:26:43.139Z,100630.00
2022-09-05T06:29:41.917Z,100638.75
2022-09-05T06:32:18.172Z,100642.03
2022-09-05T06:35:07.959Z,100650.50
2022-09-05T06:37:38.584Z,100652.72
2022-09-05T06:40:14.771Z,100657.00
2022-09-05T06:43:08.622Z,100665.72
2022-09-05T06:46:02.940Z,100656.66
2022-09-05T06:48:45.815Z,100654.72
2022-09-05T06:51:46.425Z,100664.31
2022-09-05T06:55:06.283Z,100671.13
2022-09-05T06:57:45.361Z,100661.06
2022-09-05T07:00:23.812Z,100670.75
2022-09-05T07:03:20.805Z,100675.97
2022-09-05T07:06:20.760Z,100681.06
2022-09-05T07:12:01.145Z,100683.38
2022-09-05T07:14:36.063Z,100681.47
2022-09-05T07:17:24.261Z,100684.75
2022-09-05T07:20:05.574Z,100687.31
2022-09-05T07:22:46.950Z,100688.91
2022-09-05T07:25:37.398Z,100686.97
2022-09-05T07:28:15.588Z,100686.97
2022-09-05T07:31:31.693Z,100694.22
2022-09-05T07:34:34.736Z,100702.50
2022-09-05T07:37:19.115Z,100706.75
2022-09-05T07:39:58.441Z,100703.00
2022-09-05T07:42:51.381Z,100706.31
2022-09-05T07:45:55.693Z,100714.91
2022-09-05T07:48:34.607Z,100724.22
2022-09-05T07:56:49.059Z,100717.38
2022-09-05T07:56:49.588Z,100717.16
2022-09-05T07:57:30.724Z,100714.97
2022-09-05T08:00:26.805Z,100714.13
2022-09-05T08:03:23.273Z,100713.44
2022-09-05T08:05:55.680Z,100721.81
2022-09-05T08:08:36.798Z,100721.44
2022-09-05T08:11:25.123Z,100722.06
2022-09-05T08:14:43.663Z,100725.31
2022-09-05T08:17:15.079Z,100711.63
2022-09-05T08:20:24.524Z,100721.00
2022-09-05T08:23:27.770Z,100723.19
2022-09-05T08:26:35.530Z,100725.50
2022-09-05T08:29:31.970Z,100734.97
2022-09-05T08:32:11.192Z,100730.34
2022-09-05T08:34:57.480Z,100730.00
2022-09-05T08:37:30.690Z,100729.75
2022-09-05T08:40:11.326Z,100715.81
2022-09-05T08:46:35.772Z,100720.66
2022-09-05T08:46:45.960Z,100728.44
2022-09-05T08:49:32.229Z,100720.41
2022-09-05T08:52:18.029Z,100719.28
2022-09-05T08:55:48.612Z,100717.97
2022-09-05T08:59:28.291Z,100721.03
2022-09-05T09:02:47.003Z,100725.88
2022-09-05T09:05:58.087Z,100727.09
2022-09-05T09:08:54.650Z,100732.78
2022-09-05T09:11:53.182Z,100752.84
2022-09-05T09:14:31.020Z,100752.22
2022-09-05T09:17:29.945Z,100750.63
2022-09-05T09:20:17.548Z,100756.19
2022-09-05T09:22:59.742Z,100755.69
2022-09-05T09:25:42.741Z,100746.34
2022-09-05T09:28:50.670Z,100737.34
2022-09-05T09:31:29.020Z,100744.59
2022-09-05T09:34:49.762Z,100741.53
2022-09-05T09:37:59.405Z,100734.97
2022-09-05T09:41:00.915Z,100744.44
2022-09-05T09:44:08.444Z,100741.75
2022-09-05T09:49:57.457Z,100750.25
2022-09-05T09:53:15.603Z,100750.97
2022-09-05T09:56:21.357Z,100747.94
2022-09-05T09:58:55.425Z,100742.19
2022-09-05T10:01:57.622Z,100749.84
2022-09-05T10:10:33.833Z,100741.09
2022-09-05T10:10:45.324Z,100747.16
2022-09-05T10:11:57.445Z,100745.19
2022-09-05T10:14:50.979Z,100743.97
2022-09-05T10:17:46.105Z,100743.59
2022-09-05T10:20:49.690Z,100754.75
2022-09-05T10:23:50.281Z,100745.94
2022-09-05T10:26:55.591Z,100742.34
2022-09-05T10:29:50.358Z,100748.50
2022-09-05T10:35:08.325Z,100737.13
2022-09-05T10:35:57.000Z,100729.41
2022-09-05T10:38:36.091Z,100738.63
2022-09-05T10:41:22.950Z,100738.34
2022-09-05T10:47:23.514Z,100725.84
2022-09-05T10:50:10.341Z,100711.34
2022-09-05T10:53:20.124Z,100718.13
2022-09-05T10:56:11.342Z,100714.91
2022-09-05T11:02:23.254Z,100714.53
2022-09-05T11:02:34.686Z,100719.78
2022-09-05T11:05:28.938Z,100711.91
2022-09-05T11:08:28.001Z,100714.59
2022-09-05T11:11:05.503Z,100715.03
2022-09-05T11:13:52.309Z,100718.41
2022-09-05T11:16:54.825Z,100698.94
2022-09-05T11:19:34.914Z,100698.09
2022-09-05T11:22:22.171Z,100701.50
2022-09-05T11:25:06.964Z,100694.56
2022-09-05T11:27:44.119Z,100701.66
2022-09-05T11:30:29.953Z,100696.16
2022-09-05T11:39:00.786Z,100700.66
2022-09-05T11:40:08.725Z,100690.94
2022-09-05T11:40:32.538Z,100688.25
2022-09-05T11:43:28.435Z,100687.13
2022-09-05T11:46:35.798Z,100688.66
2022-09-05T11:49:19.878Z,100683.56
2022-09-05T11:52:22.558Z,100695.72
2022-09-05T11:55:21.055Z,100699.53
2022-09-05T11:58:44.021Z,100697.28
2022-09-05T12:01:50.919Z,100697.97
2022-09-05T12:05:48.495Z,100690.81
2022-09-05T12:08:09.158Z,100704.22
2022-09-05T12:11:12.001Z,100693.75
2022-09-05T12:14:25.570Z,100690.19
2022-09-05T12:17:17.452Z,100679.84
2022-09-05T12:20:21.934Z,100689.97
2022-09-05T12:23:06.682Z,100703.00
2022-09-05T12:27:40.468Z,100713.16
2022-09-05T12:29:26.672Z,100716.44
2022-09-05T12:32:30.991Z,100711.66
2022-09-05T12:40:38.185Z,100709.53
2022-09-05T12:41:45.179Z,100714.19
2022-09-05T12:44:51.038Z,100712.34
2022-09-05T12:47:26.867Z,100707.50
2022-09-05T12:50:21.433Z,100720.94
2022-09-05T12:53:09.179Z,100711.03
2022-09-05T12:56:12.146Z,100703.25
2022-09-05T13:02:55.732Z,100704.00
2022-09-05T13:04:32.537Z,100697.50
2022-09-05T13:07:14.170Z,100708.28
2022-09-05T13:14:08.902Z,100708.56
2022-09-05T13:14:59.080Z,100705.03
2022-09-05T13:16:04.438Z,100707.59
2022-09-05T13:18:46.475Z,100713.25
2022-09-05T13:21:27.264Z,100717.19
2022-09-05T13:24:09.152Z,100697.84
2022-09-05T13:26:50.432Z,100707.31
2022-09-05T13:29:26.294Z,100702.66
2022-09-05T13:38:05.341Z,100688.13
2022-09-05T13:38:05.800Z,100694.47
2022-09-05T13:38:48.091Z,100685.56
2022-09-05T13:41:28.436Z,100685.44
2022-09-05T13:44:26.380Z,100682.63
2022-09-05T13:47:30.262Z,100683.16
2022-09-05T13:50:20.652Z,100680.19
2022-09-05T13:53:18.047Z,100677.38
2022-09-05T13:55:54.793Z,100671.84
2022-09-05T13:58:57.283Z,100687.53
2022-09-05T14:01:45.646Z,100670.59
2022-09-05T14:05:06.642Z,100667.91
2022-09-05T14:08:41.914Z,100669.03
2022-09-05T14:11:59.317Z,100666.63
2022-09-05T14:15:14.147Z,100679.34
2022-09-05T14:18:20.331Z,100666.50
2022-09-05T14:21:17.285Z,100657.31
2022-09-05T14:24:03.319Z,100661.72
2022-09-05T14:27:12.164Z,100644.31
2022-09-05T14:29:57.380Z,100645.19
2022-09-05T14:37:46.473Z,100649.41
2022-09-05T14:37:50.571Z,100632.59
2022-09-05T14:39:33.575Z,100660.56
2022-09-05T14:42:21.167Z,100657.59
2022-09-05T14:45:23.142Z,100655.75
2022-09-05T14:48:36.692Z,100650.25
2022-09-05T14:51:25.421Z,100639.38
2022-09-05T14:54:05.325Z,100647.28
2022-09-05T15:00:18.673Z,100645.41
2022-09-05T15:02:48.694Z,100638.94
2022-09-05T15:03:03.969Z,100638.78
2022-09-05T15:05:46.141Z,100620.13
2022-09-05T15:10:09.140Z,100618.00
2022-09-05T15:12:24.408Z,100610.78
2022-09-05T15:17:09.166Z,100594.69
2022-09-05T15:20:14.731Z,100591.00
2022-09-05T15:22:47.922Z,100594.25
2022-09-05T15:25:23.859Z,100592.41
2022-09-05T15:27:57.746Z,100595.78
2022-09-05T15:30:36.812Z,100596.78
2022-09-05T15:33:26.154Z,100591.69
2022-09-05T15:35:58.852Z,100592.56
2022-09-05T15:38:54.837Z,100579.44
2022-09-05T15:41:31.997Z,100581.56
2022-09-05T15:44:14.155Z,100576.31
2022-09-05T15:47:07.786Z,100578.19
2022-09-05T15:49:57.444Z,100583.69
2022-09-05T15:52:42.675Z,100581.69
2022-09-05T15:56:00.192Z,100574.13
2022-09-05T15:58:52.383Z,100572.94
2022-09-05T16:10:33.421Z,100565.56
2022-09-05T16:10:48.890Z,100542.25
2022-09-05T16:10:50.724Z,100558.97
2022-09-05T16:13:35.236Z,100543.50
2022-09-05T16:19:29.382Z,100544.63
2022-09-05T16:23:29.137Z,100538.81
2022-09-05T16:23:32.267Z,100541.56
2022-09-05T16:25:19.526Z,100530.97
2022-09-05T16:27:54.859Z,100526.06
2022-09-05T16:30:33.267Z,100527.22
2022-09-05T16:33:29.946Z,100518.59
2022-09-05T16:36:03.915Z,100523.81
2022-09-05T16:38:50.009Z,100524.13
2022-09-05T16:41:42.803Z,100525.28
2022-09-05T16:44:40.175Z,100526.28
2022-09-05T16:47:47.366Z,100525.31
2022-09-05T16:51:13.227Z,100520.41
2022-09-05T16:54:02.668Z,100509.81
2022-09-05T16:57:13.457Z,100508.41
2022-09-05T16:59:56.798Z,100507.88
2022-09-05T17:02:50.974Z,100506.47
2022-09-05T17:05:59.765Z,100515.78
2022-09-05T17:08:38.056Z,100515.25
2022-09-05T17:11:30.035Z,100512.72
2022-09-05T17:14:33.967Z,100507.50
2022-09-05T17:18:19.434Z,100512.56
2022-09-05T17:20:25.574Z,100508.47
2022-09-05T17:28:41.754Z,100514.00
2022-09-05T17:29:32.179Z,100516.84
2022-09-05T17:29:35.094Z,100510.47
2022-09-05T17:32:05.410Z,100502.88
2022-09-05T17:35:17.335Z,100503.84
2022-09-05T17:38:40.688Z,100508.53
2022-09-05T17:41:45.645Z,100497.13
2022-09-05T17:44:54.056Z,100488.38
2022-09-05T17:47:35.681Z,100490.91
2022-09-05T17:50:54.539Z,100494.88
2022-09-05T17:53:29.197Z,100498.28
2022-09-05T17:56:01.307Z,100498.69
2022-09-05T17:58:49.548Z,100507.59
2022-09-05T18:01:26.729Z,100500.69
2022-09-05T18:04:17.358Z,100504.50
2022-09-05T18:06:59.578Z,100500.28
2022-09-05T18:10:05.973Z,100489.13
2022-09-05T18:13:32.368Z,100483.34
2022-09-05T18:16:04.236Z,100485.50
2022-09-05T18:21:43.661Z,100480.72
2022-09-05T18:24:24.259Z,100486.34
2022-09-05T18:27:28.062Z,100488.47
2022-09-05T18:30:07.153Z,100499.94
2022-09-05T18:33:56.151Z,100498.81
2022-09-05T18:35:54.700Z,100486.09
2022-09-05T18:38:50.857Z,100488.22
2022-09-05T18:41:26.838Z,100493.72
2022-09-05T18:44:20.212Z,100487.81
2022-09-05T18:46:54.247Z,100490.63
2022-09-05T18:50:24.338Z,100482.00
2022-09-05T18:52:43.204Z,100480.50
2022-09-05T18:55:28.015Z,100475.97
2022-09-05T18:58:14.648Z,100470.88
2022-09-05T19:00:51.971Z,100477.09
2022-09-05T19:03:42.401Z,100479.50
2022-09-05T19:06:36.716Z,100484.88
2022-09-05T19:09:14.185Z,100486.00
2022-09-05T19:12:32.422Z,100486.28
2022-09-05T19:15:08.166Z,100485.44
2022-09-05T19:17:47.255Z,100480.22
2022-09-05T19:20:39.803Z,100476.69
2022-09-05T19:23:18.509Z,100474.44
2022-09-05T19:25:56.463Z,100471.22
2022-09-05T19:35:01.287Z,100474.03
2022-09-05T19:37:03.962Z,100468.09
2022-09-05T19:37:05.618Z,100463.00
2022-09-05T19:37:46.509Z,100460.63
2022-09-05T19:45:50.536Z,100461.75
2022-09-05T19:47:35.920Z,100454.00
2022-09-05T19:47:36.394Z,100448.06
2022-09-05T19:49:17.233Z,100437.50
2022-09-05T19:51:49.938Z,100440.03
2022-09-05T19:54:24.745Z,100425.50
2022-09-05T19:57:00.848Z,100429.88
2022-09-05T19:59:40.685Z,100429.00
2022-09-05T20:02:20.256Z,100425.63
2022-09-05T20:04:54.418Z,100425.78
2022-09-05T20:07:25.986Z,100417.03
2022-09-05T20:09:58.474Z,100412.81
2022-09-05T20:12:32.545Z,100420.16
2022-09-05T20:15:49.075Z,100421.53
2022-09-05T20:18:24.502Z,100431.69
2022-09-05T20:21:28.615Z,100427.31
2022-09-05T20:24:00.598Z,100422.09
2022-09-05T20:26:34.521Z,100419.56
2022-09-05T20:29:11.393Z,100417.03
2022-09-05T20:31:41.248Z,100410.09
2022-09-05T20:36:35.840Z,100403.22
2022-09-05T20:43:19.023Z,100392.78
2022-09-05T20:43:24.927Z,100379.00
2022-09-05T20:43:31.117Z,100383.06
2022-09-05T20:47:39.910Z,100369.41
2022-09-05T20:54:07.680Z,100373.06
2022-09-05T20:54:23.201Z,100381.22
2022-09-05T20:54:42.067Z,100389.25
2022-09-05T20:57:15.735Z,100412.66
2022-09-05T20:59:47.386Z,100412.78
2022-09-05T21:02:29.494Z,100420.13
2022-09-05T21:05:31.914Z,100428.16
2022-09-05T21:08:35.172Z,100421.50
2022-09-05T21:11:08.659Z,100419.53
2022-09-05T21:13:52.862Z,100417.84
2022-09-05T21:16:31.169Z,100421.63
2022-09-05T21:18:58.276Z,100420.66
2022-09-05T21:21:30.569Z,100418.97
2022-09-05T21:24:18.065Z,100405.84
2022-09-05T21:26:56.474Z,100408.53
2022-09-05T21:29:33.384Z,100406.13
2022-09-05T21:32:10.388Z,100403.59
2022-09-05T21:34:45.830Z,100401.75
2022-09-05T21:37:17.555Z,100396.25
2022-09-05T21:40:02.085Z,100371.91
2022-09-05T21:43:47.939Z,100385.69
2022-09-05T21:47:48.739Z,100390.22
2022-09-05T21:48:10.787Z,100379.78
2022-09-05T21:50:48.000Z,100373.59
2022-09-05T21:54:54.667Z,100374.56
2022-09-05T21:59:28.594Z,100373.59
2022-09-05T21:59:29.147Z,100378.09
2022-09-05T22:02:08.739Z,100357.69
2022-09-05T22:04:48.621Z,100355.84
2022-09-05T22:07:32.452Z,100347.81
2022-09-05T22:10:05.521Z,100347.69
2022-09-05T22:12:39.561Z,100345.41
2022-09-05T22:15:28.300Z,100360.22
2022-09-05T22:18:16.856Z,100414.72
2022-09-05T22:21:33.570Z,100463.28
2022-09-05T22:23:51.405Z,100511.66
2022-09-05T22:26:22.176Z,100486.66
2022-09-05T22:28:51.770Z,100501.69
2022-09-05T22:31:23.637Z,100502.94
2022-09-05T22:33:56.225Z,100507.97
2022-09-05T22:36:27.816Z,100505.56
2022-09-05T22:38:55.024Z,100508.38
2022-09-05T22:41:31.064Z,100539.75
2022-09-05T22:44:00.102Z,100553.38
2022-09-05T22:46:33.754Z,100552.50
2022-09-05T22:49:06.472Z,100552.75
2022-09-05T22:51:37.171Z,100571.59
2022-09-05T22:54:07.565Z,100570.19
2022-09-05T22:56:41.148Z,100562.56
2022-09-05T22:59:19.666Z,100557.22
2022-09-05T23:01:48.656Z,100542.13
2022-09-05T23:04:39.642Z,100536.22
2022-09-05T23:07:12.706Z,100505.56
2022-09-05T23:09:49.747Z,100483.06
2022-09-05T23:12:18.606Z,100479.31
2022-09-05T23:14:51.516Z,100466.78
2022-09-05T23:17:22.857Z,100454.09
2022-09-05T23:20:01.882Z,100423.75
2022-09-05T23:22:33.031Z,100407.69
2022-09-05T23:27:52.318Z,100367.72
2022-09-05T23:30:20.153Z,100362.66
2022-09-05T23:32:58.075Z,100358.16
2022-09-05T23:35:29.302Z,100385.00
2022-09-05T23:37:59.169Z,100408.22
2022-09-05T23:40:28.875Z,100415.53
2022-09-05T23:42:59.909Z,100399.91
2022-09-05T23:45:38.819Z,100388.47
2022-09-05T23:48:08.144Z,100392.16
2022-09-05T23:50:35.139Z,100390.44
2022-09-05T23:53:10.290Z,100398.59
2022-09-05T23:55:41.858Z,100412.91
2022-09-05T23:58:14.867Z,100400.56
